Weather at Montréal East (AIM) Heliport

Public forecast

Using degrees Celsius for public forecast. Weather courtesy of forecast.io.

Closest aviation weather report (METAR) to Montréal East (AIM) Heliport

Closest report is Montréal / Saint-Hubert Airport, 9.3 nm (17.3 km) SE.

2024/05/26 20:00 (retrieved 15 minutes ago)

CYHU 262000Z AUTO 20003KT 130V230 9SM BKN060 BKN075 24/10 A2994 RMK SLP140 DENSITY ALT 1200FT

Closest aviation forecast (TAF) to Montréal East (AIM) Heliport

Closest forecast is Montréal / Saint-Hubert Airport, 9.3 nm (17.3 km) SE.

2024/05/26 18:42 (retrieved 2 hours ago)

TAF CYHU 261740Z 2618/2718 21005KT P6SM FEW040 BECMG 2621/2623 06008KT FM270500 06008KT P6SM SCT080 BKN250 BECMG 2711/2713 15015G25KT FM271300 15015G25KT P6SM BKN040 BKN090 OVC200 FM271600 16018G28KT P6SM -SHRA BKN030 OVC120 RMK FCST BASED ON AUTO OBS NXT FCST BY 270000Z